Terminal Aerodrome Forecast
Issued by NWS

Home | Current Version | Previous Version | Text Only | Print | Product List | Glossary On
Versions: 1 2 3 4 5 6 7 8 9 10 11 12 13 14 15 16 17 18 19 20 21 22 23 24 25 26 27 28 29 30 31 32 33 34 35 36 37 38 39 40 41 42 43
000
FTUS45 KGJT 240535
TAFVEL
TAF
KVEL 240535Z 2406/2506 00000KT P6SM BKN150
     FM241000 30005KT P6SM VCSH SCT060 BKN100
     FM241500 13003KT P6SM VCSH BKN080
     FM241800 VRB03KT P6SM VCSH BKN060
     FM242100 03009KT P6SM VCTS SCT030CB BKN050
     FM250100 01008KT P6SM SCT050 BKN120=

USA.gov is the U.S. government's official web portal to all federal, state and local government web resources and services.